Time;durP1;ratioP1;P1;durP2;ratioP2;P2;SDS_P1;SDS_P2;PMS_P1;PMS_P2;Temp;Humidity;BMP_temperature;BMP_pressure;BME280_temperature;BME280_humidity;BME280_pressure;Samples;Min_cycle;Max_cycle;Signal;HPM_P1;HPM_P2
2021/04/30 00:02:18;;;;;;;5.45;3.40;;;23.10;31.20;;;;;;5084273;28;20466;-62
2021/04/30 00:04:44;;;;;;;5.80;3.40;;;23.20;31.20;;;;;;5066028;28;20056;-56
2021/04/30 00:07:10;;;;;;;4.20;2.78;;;23.10;31.20;;;;;;5081677;28;20372;-62
2021/04/30 00:09:36;;;;;;;4.50;2.83;;;23.10;31.20;;;;;;5084603;28;20321;-60
2021/04/30 00:12:03;;;;;;;4.43;2.97;;;23.10;31.30;;;;;;5084863;28;20050;-59
2021/04/30 00:14:29;;;;;;;3.92;2.90;;;23.10;31.30;;;;;;5086396;28;20032;-59
2021/04/30 00:16:55;;;;;;;4.30;2.78;;;23.10;31.30;;;;;;5090063;28;20035;-57
2021/04/30 00:19:22;;;;;;;4.68;3.20;;;23.10;31.30;;;;;;5085040;28;20021;-59
2021/04/30 00:21:48;;;;;;;4.25;2.65;;;23.10;31.30;;;;;;5085260;28;20340;-58
2021/04/30 00:24:15;;;;;;;3.83;2.58;;;23.10;31.40;;;;;;5086997;28;20030;-61
2021/04/30 00:26:41;;;;;;;4.90;2.88;;;23.10;31.30;;;;;;5084453;28;20036;-59
2021/04/30 00:29:07;;;;;;;4.57;2.72;;;23.10;31.30;;;;;;5080396;28;20032;-61
2021/04/30 00:31:34;;;;;;;3.63;2.50;;;23.10;31.30;;;;;;5084327;28;20025;-58
2021/04/30 00:34:00;;;;;;;4.70;2.70;;;23.10;31.40;;;;;;5083544;28;20115;-61
2021/04/30 00:36:27;;;;;;;4.97;2.70;;;23.10;31.40;;;;;;5087212;28;20029;-61
2021/04/30 00:38:53;;;;;;;4.07;2.45;;;23.10;31.40;;;;;;5083501;28;20032;-60
2021/04/30 00:41:19;;;;;;;3.60;2.13;;;23.00;31.40;;;;;;5067395;28;20111;-59
2021/04/30 00:43:45;;;;;;;4.70;2.65;;;23.10;31.50;;;;;;5082284;28;20058;-61
2021/04/30 00:46:11;;;;;;;4.15;2.10;;;23.00;31.40;;;;;;5085181;28;20043;-59
2021/04/30 00:48:38;;;;;;;3.17;2.20;;;23.00;31.40;;;;;;5084252;28;20381;-61
2021/04/30 00:51:04;;;;;;;3.65;2.38;;;23.00;31.40;;;;;;5090776;28;20024;-60
2021/04/30 00:53:31;;;;;;;3.80;2.13;;;23.00;31.50;;;;;;5079215;28;20028;-59
2021/04/30 00:55:56;;;;;;;3.88;2.40;;;23.00;31.50;;;;;;5084854;28;20443;-61
2021/04/30 00:58:22;;;;;;;3.85;2.10;;;23.00;31.50;;;;;;5087294;28;20511;-56
2021/04/30 01:00:48;;;;;;;3.60;2.25;;;23.00;31.50;;;;;;5094114;28;20459;-60
2021/04/30 01:03:15;;;;;;;4.95;2.22;;;23.00;31.50;;;;;;5093475;28;20013;-60
2021/04/30 01:05:41;;;;;;;3.58;2.15;;;23.00;31.50;;;;;;5079467;28;20051;-60
2021/04/30 01:08:07;;;;;;;4.00;2.15;;;23.00;31.60;;;;;;5086940;28;20039;-61
2021/04/30 01:10:33;;;;;;;3.65;2.05;;;23.00;31.60;;;;;;5059162;28;20050;-60
2021/04/30 01:13:00;;;;;;;3.35;2.10;;;23.00;31.60;;;;;;5090241;28;20047;-60
2021/04/30 01:15:26;;;;;;;3.85;2.10;;;23.00;31.60;;;;;;5083521;28;20025;-58
2021/04/30 01:17:52;;;;;;;3.95;2.10;;;23.00;31.60;;;;;;5083426;28;20071;-58
2021/04/30 01:20:19;;;;;;;3.63;1.95;;;22.90;31.60;;;;;;5079802;28;20388;-60
2021/04/30 01:22:52;;;;;;;3.92;2.10;;;23.00;31.70;;;;;;5086891;28;20371;-59
2021/04/30 01:25:22;;;;;;;3.15;1.70;;;22.90;31.60;;;;;;5059752;28;20387;-60
2021/04/30 01:27:48;;;;;;;2.38;1.85;;;23.00;31.70;;;;;;5090745;28;20392;-57
2021/04/30 01:30:27;;;;;;;3.38;2.20;;;22.90;31.70;;;;;;5094989;28;20032;-59
2021/04/30 01:32:54;;;;;;;3.67;1.88;;;22.90;31.70;;;;;;5080343;28;20067;-59
2021/04/30 01:35:25;;;;;;;3.53;2.05;;;22.90;31.70;;;;;;5077434;28;20443;-61
2021/04/30 01:37:54;;;;;;;3.78;1.85;;;22.90;31.80;;;;;;5092047;28;20169;-59
2021/04/30 01:40:24;;;;;;;2.40;1.60;;;22.90;31.80;;;;;;5093987;28;20042;-60
2021/04/30 01:43:10;;;;;;;4.15;1.88;;;22.90;31.80;;;;;;5077649;28;20124;-63
2021/04/30 01:45:59;;;;;;;3.92;1.60;;;22.90;31.80;;;;;;5077052;28;20060;-62
2021/04/30 01:48:30;;;;;;;3.33;1.95;;;22.90;31.80;;;;;;5094235;28;20102;-58
2021/04/30 01:50:58;;;;;;;3.95;2.13;;;22.90;31.80;;;;;;5087974;28;20453;-58
2021/04/30 01:53:29;;;;;;;3.42;1.95;;;22.90;31.90;;;;;;5077038;28;20506;-60
2021/04/30 01:55:56;;;;;;;3.63;1.90;;;22.90;31.90;;;;;;5082660;28;20336;-62
2021/04/30 01:58:22;;;;;;;3.55;2.03;;;22.90;31.90;;;;;;5089857;28;20028;-59
2021/04/30 02:00:48;;;;;;;4.10;2.00;;;22.90;31.90;;;;;;5082747;28;20028;-56
2021/04/30 02:03:14;;;;;;;2.53;1.80;;;22.80;31.90;;;;;;5096111;28;20158;-59
2021/04/30 02:05:41;;;;;;;3.30;1.60;;;22.80;31.90;;;;;;5086770;28;20139;-59
2021/04/30 02:08:09;;;;;;;3.13;2.03;;;22.80;31.90;;;;;;5096292;28;20032;-57
2021/04/30 02:10:35;;;;;;;2.95;1.73;;;22.80;31.90;;;;;;5094386;28;20046;-62
2021/04/30 02:13:02;;;;;;;3.90;1.63;;;22.90;32.00;;;;;;5096009;28;20032;-59
2021/04/30 02:15:30;;;;;;;2.33;1.45;;;22.80;32.00;;;;;;5066341;28;20436;-61
2021/04/30 02:17:57;;;;;;;3.83;1.80;;;22.80;32.00;;;;;;5089090;28;20040;-57
2021/04/30 02:20:24;;;;;;;3.33;1.85;;;22.80;32.00;;;;;;5091634;28;20024;-61
2021/04/30 02:22:51;;;;;;;3.70;1.70;;;22.80;32.00;;;;;;5085186;28;20020;-61
2021/04/30 02:25:18;;;;;;;2.53;1.50;;;22.80;32.00;;;;;;5075400;28;20044;-59
2021/04/30 02:27:45;;;;;;;5.13;2.20;;;22.80;32.00;;;;;;5075950;28;20139;-61
2021/04/30 02:30:13;;;;;;;3.60;1.80;;;22.80;32.10;;;;;;5066183;28;20032;-59
2021/04/30 02:32:40;;;;;;;4.90;1.95;;;22.80;32.10;;;;;;5081597;28;20024;-60
2021/04/30 02:35:17;;;;;;;4.45;1.40;;;22.80;32.10;;;;;;5093301;28;20042;-59
2021/04/30 02:37:44;;;;;;;3.45;1.77;;;22.80;32.10;;;;;;4988129;28;20042;-58
2021/04/30 02:40:12;;;;;;;2.92;1.70;;;22.80;32.10;;;;;;4976082;28;20038;-59
2021/04/30 02:42:38;;;;;;;3.17;1.45;;;22.80;32.20;;;;;;4986344;28;20046;-59
2021/04/30 02:45:05;;;;;;;3.35;1.75;;;22.80;32.20;;;;;;4974370;28;20039;-61
2021/04/30 02:47:32;;;;;;;4.28;1.73;;;22.70;32.20;;;;;;4982674;28;20038;-59
2021/04/30 02:50:00;;;;;;;2.33;1.40;;;22.80;32.20;;;;;;4975374;28;20034;-61
2021/04/30 02:52:26;;;;;;;4.50;1.67;;;22.80;32.20;;;;;;4982899;28;20046;-58
2021/04/30 02:54:52;;;;;;;3.67;1.50;;;22.70;32.20;;;;;;4974126;28;20038;-59
2021/04/30 02:57:19;;;;;;;3.17;1.65;;;22.70;32.20;;;;;;4972605;28;20039;-58
2021/04/30 02:59:45;;;;;;;5.20;1.92;;;22.80;32.30;;;;;;4973900;28;20031;-60
2021/04/30 03:02:13;;;;;;;3.42;1.67;;;22.70;32.20;;;;;;4958953;28;20034;-60
2021/04/30 03:04:39;;;;;;;5.93;1.80;;;22.70;32.30;;;;;;4957475;28;20487;-60
2021/04/30 03:07:07;;;;;;;3.42;1.60;;;22.70;32.30;;;;;;4982294;28;20176;-61
2021/04/30 03:09:32;;;;;;;2.97;1.45;;;22.70;32.30;;;;;;5036791;28;20457;-61
2021/04/30 03:11:58;;;;;;;3.53;1.60;;;22.70;32.30;;;;;;5070220;28;20028;-59
2021/04/30 03:14:24;;;;;;;3.00;1.45;;;22.70;32.30;;;;;;5063799;28;20162;-61
2021/04/30 03:16:50;;;;;;;3.53;1.40;;;22.70;33.00;;;;;;5068386;28;20420;-57
2021/04/30 03:19:17;;;;;;;3.72;1.77;;;22.70;32.30;;;;;;5065057;28;20032;-55
2021/04/30 03:21:43;;;;;;;3.88;1.55;;;22.70;32.40;;;;;;5058771;28;20116;-59
2021/04/30 03:24:09;;;;;;;2.70;1.38;;;22.70;32.40;;;;;;5071645;28;20044;-59
2021/04/30 03:26:36;;;;;;;3.50;1.60;;;22.70;32.40;;;;;;5074258;28;20036;-60
2021/04/30 03:29:03;;;;;;;2.97;1.48;;;22.70;32.50;;;;;;5064490;28;20056;-54
2021/04/30 03:31:29;;;;;;;3.53;1.40;;;22.70;32.40;;;;;;5057418;28;20036;-55
2021/04/30 03:33:55;;;;;;;3.47;1.73;;;22.70;32.40;;;;;;5068695;28;20497;-56
2021/04/30 03:36:21;;;;;;;3.88;1.50;;;22.60;32.40;;;;;;5056058;28;20029;-59
2021/04/30 03:38:48;;;;;;;2.50;1.58;;;22.60;32.40;;;;;;5064073;28;20058;-55
2021/04/30 03:41:16;;;;;;;4.70;1.80;;;22.70;32.50;;;;;;5072922;28;20021;-58
2021/04/30 03:43:43;;;;;;;4.18;1.30;;;22.70;32.50;;;;;;5058277;28;20090;-54
2021/04/30 03:46:09;;;;;;;3.92;1.35;;;22.70;32.50;;;;;;5065988;28;20044;-60
2021/04/30 03:48:36;;;;;;;4.05;1.73;;;22.60;32.50;;;;;;5059741;28;20052;-61
2021/04/30 03:51:02;;;;;;;3.20;1.70;;;22.60;32.50;;;;;;5070612;28;20039;-59
2021/04/30 03:53:28;;;;;;;3.45;1.73;;;22.60;32.50;;;;;;5064580;28;20021;-59
2021/04/30 03:55:54;;;;;;;2.90;1.15;;;22.60;32.50;;;;;;5056644;28;20387;-58
2021/04/30 03:58:20;;;;;;;5.25;1.63;;;22.60;32.50;;;;;;5057833;28;20021;-55
2021/04/30 04:00:46;;;;;;;2.22;1.30;;;22.60;32.50;;;;;;5068634;28;20130;-60
2021/04/30 04:03:12;;;;;;;3.50;1.40;;;22.60;32.50;;;;;;5057399;28;20459;-54
2021/04/30 04:05:39;;;;;;;3.20;1.42;;;22.60;32.50;;;;;;5080660;28;20071;-57
2021/04/30 04:08:08;;;;;;;2.17;1.30;;;22.60;32.50;;;;;;5092888;28;20140;-54
2021/04/30 04:10:35;;;;;;;3.33;1.42;;;22.60;32.50;;;;;;5086216;28;20447;-60
2021/04/30 04:13:02;;;;;;;2.92;1.30;;;22.60;32.60;;;;;;5093878;28;20411;-57
2021/04/30 04:15:28;;;;;;;3.42;1.58;;;22.60;32.60;;;;;;5084702;28;20044;-60
2021/04/30 04:17:54;;;;;;;3.70;1.98;;;22.60;32.60;;;;;;5066000;28;20063;-59
2021/04/30 04:20:20;;;;;;;2.45;1.23;;;22.60;32.60;;;;;;5074537;28;20060;-61
2021/04/30 04:22:46;;;;;;;3.05;1.70;;;22.60;32.60;;;;;;5039567;28;20052;-61
2021/04/30 04:25:12;;;;;;;2.97;1.30;;;22.60;32.60;;;;;;5089197;28;20040;-61
2021/04/30 04:27:38;;;;;;;3.58;1.38;;;22.60;32.60;;;;;;5085997;28;20047;-60
2021/04/30 04:30:07;;;;;;;3.80;1.60;;;22.60;32.60;;;;;;5093966;28;20032;-59
2021/04/30 04:32:33;;;;;;;2.63;1.45;;;22.60;32.60;;;;;;5080285;28;20042;-59
2021/04/30 04:34:59;;;;;;;2.65;1.40;;;22.60;32.60;;;;;;5073683;28;20041;-61
2021/04/30 04:37:25;;;;;;;2.30;1.27;;;22.60;32.70;;;;;;5087824;28;20107;-56
2021/04/30 04:39:51;;;;;;;2.08;1.35;;;22.60;32.60;;;;;;5080587;28;20071;-61
2021/04/30 04:42:17;;;;;;;3.00;1.55;;;22.60;32.70;;;;;;5085978;28;20029;-61
2021/04/30 04:44:43;;;;;;;2.72;1.25;;;22.60;32.60;;;;;;5075514;28;20112;-58
2021/04/30 04:47:09;;;;;;;2.63;1.33;;;22.50;32.60;;;;;;5076569;28;20099;-58
2021/04/30 04:49:35;;;;;;;3.22;1.50;;;22.50;32.60;;;;;;5092944;28;20039;-59
2021/04/30 04:52:01;;;;;;;3.95;1.42;;;22.60;32.70;;;;;;5087447;28;20031;-59
2021/04/30 04:54:28;;;;;;;2.85;1.55;;;22.50;32.60;;;;;;5077314;28;20059;-57
2021/04/30 04:56:54;;;;;;;3.15;1.58;;;22.50;32.60;;;;;;5077770;28;20112;-58
2021/04/30 04:59:20;;;;;;;2.40;1.30;;;22.50;32.70;;;;;;5078766;28;20077;-60
2021/04/30 05:01:46;;;;;;;3.38;1.73;;;22.50;32.70;;;;;;5091651;28;20036;-59
2021/04/30 05:04:12;;;;;;;3.13;1.40;;;22.50;32.70;;;;;;5077598;28;20043;-58
2021/04/30 05:06:37;;;;;;;2.55;1.45;;;22.50;32.70;;;;;;5089804;28;20055;-59
2021/04/30 05:09:04;;;;;;;2.30;1.50;;;22.50;32.70;;;;;;5097418;28;20047;-57
2021/04/30 05:11:30;;;;;;;2.60;1.50;;;22.50;32.70;;;;;;5093944;28;20032;-61
2021/04/30 05:13:56;;;;;;;3.38;1.70;;;22.50;32.80;;;;;;5096788;28;20031;-61
2021/04/30 05:16:22;;;;;;;3.97;1.58;;;22.50;32.80;;;;;;5075072;28;20118;-61
2021/04/30 05:18:48;;;;;;;3.38;1.52;;;22.50;32.80;;;;;;5047521;28;20040;-59
2021/04/30 05:21:14;;;;;;;3.25;1.25;;;22.50;32.90;;;;;;5095833;28;20431;-60
2021/04/30 05:23:40;;;;;;;2.85;1.50;;;22.50;32.90;;;;;;5095025;28;20475;-61
2021/04/30 05:26:06;;;;;;;3.25;1.70;;;22.50;32.90;;;;;;5078949;28;20044;-62
2021/04/30 05:28:33;;;;;;;2.40;1.48;;;22.50;32.90;;;;;;5090925;28;20031;-55
2021/04/30 05:30:59;;;;;;;3.80;1.48;;;22.50;32.90;;;;;;5084932;28;20387;-57
2021/04/30 05:33:26;;;;;;;3.13;1.80;;;22.50;32.90;;;;;;5059537;28;20028;-56
2021/04/30 05:35:52;;;;;;;3.28;1.77;;;22.50;32.90;;;;;;5061056;28;20040;-59
2021/04/30 05:38:18;;;;;;;2.83;1.65;;;22.50;32.90;;;;;;5077212;28;20052;-58
2021/04/30 05:40:44;;;;;;;3.30;1.45;;;22.50;33.00;;;;;;5092442;28;20115;-60
2021/04/30 05:43:11;;;;;;;2.50;1.35;;;22.50;32.90;;;;;;5093356;28;20040;-61
2021/04/30 05:45:40;;;;;;;2.42;1.48;;;22.50;32.90;;;;;;5088117;28;20037;-59
2021/04/30 05:48:08;;;;;;;1.58;1.10;;;22.50;32.90;;;;;;5096217;28;20028;-60
2021/04/30 05:50:34;;;;;;;2.55;1.60;;;22.50;33.00;;;;;;5093766;28;20020;-60
2021/04/30 05:53:00;;;;;;;2.67;1.25;;;22.50;32.90;;;;;;5075582;28;20063;-59
2021/04/30 05:55:25;;;;;;;2.10;1.23;;;22.50;33.00;;;;;;5090311;28;20078;-58
2021/04/30 05:57:51;;;;;;;2.90;1.50;;;22.50;32.90;;;;;;5080644;28;20033;-55
2021/04/30 06:00:18;;;;;;;2.88;1.55;;;22.50;32.90;;;;;;5076221;28;20021;-62
2021/04/30 06:02:45;;;;;;;2.90;1.50;;;22.50;33.00;;;;;;5076524;28;20109;-61
2021/04/30 06:05:11;;;;;;;4.20;1.52;;;22.40;33.00;;;;;;5078971;28;20044;-61
2021/04/30 06:07:37;;;;;;;2.40;1.73;;;22.40;33.00;;;;;;5090448;28;20024;-63
2021/04/30 06:10:05;;;;;;;3.22;1.67;;;22.40;33.10;;;;;;5091278;28;20031;-62
2021/04/30 06:12:31;;;;;;;3.47;1.73;;;22.40;33.10;;;;;;5096052;28;20060;-59
2021/04/30 06:14:57;;;;;;;3.08;1.73;;;22.40;33.20;;;;;;5093135;28;20071;-61
2021/04/30 06:17:24;;;;;;;5.10;2.13;;;22.40;33.30;;;;;;5057755;28;20063;-60
2021/04/30 06:19:50;;;;;;;3.08;1.30;;;22.30;33.20;;;;;;5081740;28;20032;-58
2021/04/30 06:22:16;;;;;;;3.17;1.52;;;22.30;33.30;;;;;;5070083;28;20040;-55
2021/04/30 06:24:42;;;;;;;3.88;1.95;;;22.30;33.30;;;;;;5085048;28;20451;-60
2021/04/30 06:27:08;;;;;;;3.63;1.90;;;22.30;33.40;;;;;;5078043;28;20075;-59
2021/04/30 06:29:33;;;;;;;4.05;1.90;;;22.30;33.40;;;;;;5058791;28;20108;-58
2021/04/30 06:32:00;;;;;;;2.72;1.70;;;22.30;33.50;;;;;;5093085;28;20332;-60
2021/04/30 06:34:26;;;;;;;3.85;1.85;;;22.20;33.50;;;;;;5090499;28;20036;-60
2021/04/30 06:36:54;;;;;;;2.72;1.50;;;22.20;33.50;;;;;;5074827;28;20063;-60
2021/04/30 06:39:23;;;;;;;3.28;1.65;;;22.20;33.50;;;;;;5087846;28;20101;-58
2021/04/30 06:41:49;;;;;;;3.58;1.40;;;22.20;33.70;;;;;;5085697;28;20043;-56
2021/04/30 06:44:15;;;;;;;3.78;1.90;;;22.20;33.80;;;;;;5078629;28;20047;-60
2021/04/30 06:46:41;;;;;;;3.03;1.83;;;22.20;33.90;;;;;;5077895;28;20037;-56
2021/04/30 06:49:07;;;;;;;2.80;1.67;;;22.10;33.90;;;;;;5074958;28;20891;-57
2021/04/30 06:51:33;;;;;;;2.83;1.50;;;22.10;34.00;;;;;;5087378;28;20032;-57
2021/04/30 06:54:03;;;;;;;3.05;1.73;;;22.10;33.90;;;;;;5078958;28;20066;-61
2021/04/30 06:56:29;;;;;;;2.20;1.30;;;22.20;33.90;;;;;;5071267;28;20624;-60
2021/04/30 06:58:57;;;;;;;3.55;1.75;;;22.20;33.80;;;;;;5094187;28;20054;-57
2021/04/30 07:01:24;;;;;;;2.88;1.73;;;22.20;33.70;;;;;;5091867;28;20068;-59
2021/04/30 07:03:50;;;;;;;1.88;1.35;;;22.30;33.60;;;;;;5095301;28;20040;-57
2021/04/30 07:06:19;;;;;;;2.80;1.50;;;22.30;33.60;;;;;;5082971;28;20047;-59
2021/04/30 07:08:45;;;;;;;2.92;1.60;;;22.40;33.50;;;;;;5088427;28;20402;-60
2021/04/30 07:11:11;;;;;;;2.58;1.42;;;22.40;33.40;;;;;;5076101;28;20147;-57
2021/04/30 07:13:37;;;;;;;3.90;1.83;;;22.30;33.40;;;;;;5069309;28;20032;-59
2021/04/30 07:16:04;;;;;;;2.65;1.50;;;22.40;33.40;;;;;;5083560;28;20409;-58
2021/04/30 07:18:30;;;;;;;2.67;1.50;;;22.40;33.40;;;;;;5079918;28;20035;-60
2021/04/30 07:20:56;;;;;;;2.47;1.48;;;22.40;33.40;;;;;;5077813;28;20161;-61
2021/04/30 07:23:22;;;;;;;2.20;1.63;;;22.40;33.40;;;;;;5054135;28;20031;-60
2021/04/30 07:25:48;;;;;;;2.47;1.60;;;22.50;33.50;;;;;;5082193;28;20044;-59
2021/04/30 07:28:14;;;;;;;2.90;1.45;;;22.40;33.50;;;;;;5077663;28;20107;-59
2021/04/30 07:30:41;;;;;;;2.63;1.67;;;22.40;33.50;;;;;;5084714;28;20116;-60
2021/04/30 07:33:07;;;;;;;2.38;1.55;;;22.40;33.50;;;;;;5085946;28;20042;-61
2021/04/30 07:35:33;;;;;;;2.80;1.75;;;22.50;33.60;;;;;;5085542;28;20028;-63
2021/04/30 07:37:59;;;;;;;1.70;1.20;;;22.50;33.60;;;;;;5093136;28;20119;-58
2021/04/30 07:40:25;;;;;;;3.10;1.85;;;22.50;33.50;;;;;;5081546;28;20039;-57
2021/04/30 07:42:51;;;;;;;3.20;1.77;;;22.50;33.60;;;;;;5074056;28;20032;-59
2021/04/30 07:45:17;;;;;;;3.40;1.67;;;22.50;33.60;;;;;;5076008;28;20041;-60
2021/04/30 07:47:43;;;;;;;3.00;1.67;;;22.50;33.60;;;;;;5069083;28;20578;-55
2021/04/30 07:50:09;;;;;;;3.88;1.92;;;22.50;33.60;;;;;;5067320;28;20043;-57
2021/04/30 07:52:35;;;;;;;4.03;2.30;;;22.50;33.60;;;;;;5061760;28;20115;-56
2021/04/30 07:55:01;;;;;;;4.40;2.20;;;22.50;33.70;;;;;;5094044;28;20404;-59
2021/04/30 07:57:30;;;;;;;3.80;2.35;;;22.50;33.80;;;;;;5072033;28;20131;-60
2021/04/30 07:59:56;;;;;;;3.47;1.95;;;22.40;33.80;;;;;;5092078;28;20032;-57
2021/04/30 08:02:23;;;;;;;5.50;2.33;;;22.40;33.90;;;;;;5092111;28;20466;-58
2021/04/30 08:04:49;;;;;;;4.07;1.98;;;22.40;34.00;;;;;;5090903;28;20040;-60
2021/04/30 08:07:15;;;;;;;3.22;2.00;;;22.40;34.10;;;;;;5074787;28;20352;-58
2021/04/30 08:09:41;;;;;;;3.97;2.00;;;22.40;34.00;;;;;;5073860;28;20033;-60
2021/04/30 08:12:08;;;;;;;4.75;2.13;;;22.50;34.00;;;;;;5056107;28;20434;-60
2021/04/30 08:14:34;;;;;;;3.85;2.10;;;22.50;34.00;;;;;;5057114;28;20446;-58
2021/04/30 08:17:00;;;;;;;2.50;1.85;;;22.50;34.00;;;;;;5091212;28;20036;-57
2021/04/30 08:19:26;;;;;;;3.28;2.17;;;22.50;33.80;;;;;;5093699;28;20097;-60
2021/04/30 08:21:53;;;;;;;4.80;1.98;;;22.60;33.90;;;;;;5086935;28;20064;-60
2021/04/30 08:24:20;;;;;;;3.38;1.90;;;22.60;33.80;;;;;;5079364;28;20039;-60
2021/04/30 08:26:46;;;;;;;4.20;2.30;;;22.60;33.70;;;;;;5061212;28;20036;-57
2021/04/30 08:29:13;;;;;;;3.50;2.13;;;22.70;33.80;;;;;;5084154;28;20377;-57
2021/04/30 08:31:38;;;;;;;3.03;2.10;;;22.70;33.70;;;;;;5064822;28;20029;-58
2021/04/30 08:34:04;;;;;;;3.08;2.00;;;22.70;33.70;;;;;;5077560;28;20086;-57
2021/04/30 08:36:30;;;;;;;3.10;2.00;;;22.70;33.60;;;;;;5077477;28;20029;-59
2021/04/30 08:38:56;;;;;;;3.28;1.70;;;22.80;34.30;;;;;;5078619;28;20138;-61
2021/04/30 08:41:25;;;;;;;3.65;2.05;;;22.80;33.60;;;;;;5089665;28;20090;-58
2021/04/30 08:43:51;;;;;;;3.33;1.90;;;22.80;33.50;;;;;;5082687;28;20047;-57
2021/04/30 08:46:17;;;;;;;3.33;2.17;;;22.80;33.40;;;;;;5086142;28;20444;-60
2021/04/30 08:48:43;;;;;;;3.60;2.22;;;22.80;33.60;;;;;;5077659;28;20029;-58
2021/04/30 08:51:10;;;;;;;3.13;1.88;;;22.80;33.30;;;;;;5083203;28;20025;-59
2021/04/30 08:53:35;;;;;;;2.63;2.25;;;22.90;33.30;;;;;;5076943;28;20089;-58
2021/04/30 08:56:04;;;;;;;3.72;2.08;;;22.80;33.30;;;;;;5084280;28;20075;-58
2021/04/30 08:58:34;;;;;;;3.20;2.15;;;22.90;33.20;;;;;;5083021;28;20016;-57
2021/04/30 09:00:59;;;;;;;2.00;1.48;;;22.90;33.20;;;;;;5058980;28;20483;-58
2021/04/30 09:03:26;;;;;;;2.70;2.00;;;22.90;33.20;;;;;;5076895;28;20036;-56
2021/04/30 09:05:56;;;;;;;4.40;2.08;;;22.90;33.20;;;;;;5076135;28;20052;-60
2021/04/30 09:08:26;;;;;;;3.20;2.00;;;22.90;33.10;;;;;;5059098;28;20032;-59
2021/04/30 09:10:55;;;;;;;2.40;1.90;;;22.90;33.10;;;;;;5076722;28;20107;-57
2021/04/30 09:13:23;;;;;;;2.85;1.90;;;22.90;33.10;;;;;;5076680;28;20036;-59
2021/04/30 09:16:06;;;;;;;4.03;1.80;;;22.90;33.10;;;;;;5076992;28;20550;-54
2021/04/30 09:18:33;;;;;;;3.28;2.00;;;22.90;33.10;;;;;;5056486;28;20047;-60
2021/04/30 09:21:07;;;;;;;3.40;1.88;;;22.90;33.00;;;;;;5066980;28;20094;-60
2021/04/30 09:23:38;;;;;;;2.95;1.80;;;22.90;33.00;;;;;;5076866;28;20033;-59
2021/04/30 09:26:31;;;;;;;2.00;1.48;;;22.90;32.90;;;;;;5076136;28;20423;-57
2021/04/30 09:29:02;;;;;;;2.47;1.60;;;22.90;32.90;;;;;;5060719;28;20035;-57
2021/04/30 09:31:40;;;;;;;3.53;2.05;;;22.90;32.90;;;;;;5076163;28;20032;-60
2021/04/30 09:34:21;;;;;;;2.88;1.52;;;22.90;32.80;;;;;;5077138;28;20037;-57
2021/04/30 09:37:06;;;;;;;2.13;1.55;;;22.90;32.70;;;;;;5075652;28;20036;-58
2021/04/30 09:39:50;;;;;;;1.95;1.40;;;23.00;32.70;;;;;;5084493;28;20032;-56
2021/04/30 09:42:17;;;;;;;2.90;1.70;;;23.00;32.60;;;;;;5092373;28;20044;-57
2021/04/30 09:44:45;;;;;;;2.45;1.38;;;23.00;32.60;;;;;;5086068;28;20020;-59
2021/04/30 09:47:15;;;;;;;2.10;1.45;;;23.00;32.50;;;;;;5055926;28;20037;-58
2021/04/30 09:49:41;;;;;;;2.20;1.25;;;23.00;32.50;;;;;;5055997;28;20068;-59
2021/04/30 09:52:08;;;;;;;2.10;1.55;;;23.00;32.40;;;;;;5084908;28;20043;-61
2021/04/30 09:54:35;;;;;;;2.45;1.50;;;23.00;32.40;;;;;;5075373;28;20767;-58
2021/04/30 09:57:23;;;;;;;3.13;1.50;;;23.00;32.30;;;;;;5086293;28;20041;-55
2021/04/30 10:00:00;;;;;;;2.38;1.55;;;23.00;32.30;;;;;;5077067;28;20040;-53
2021/04/30 10:02:33;;;;;;;3.17;1.83;;;23.00;32.40;;;;;;5059490;28;20032;-54
2021/04/30 10:05:09;;;;;;;3.33;1.73;;;23.00;32.40;;;;;;5065778;28;20077;-58
2021/04/30 10:07:37;;;;;;;1.83;1.40;;;23.00;32.30;;;;;;5058712;28;20086;-53
2021/04/30 10:10:37;;;;;;;1.92;1.20;;;23.00;32.40;;;;;;5064056;28;20070;-59
2021/04/30 10:13:04;;;;;;;1.90;1.20;;;23.00;32.40;;;;;;5044036;28;20472;-62
2021/04/30 10:15:31;;;;;;;2.85;1.33;;;23.00;32.40;;;;;;5053853;28;20033;-60
2021/04/30 10:17:58;;;;;;;2.47;1.27;;;23.00;32.40;;;;;;5054631;28;20112;-60
2021/04/30 10:20:24;;;;;;;2.13;1.38;;;23.00;32.40;;;;;;5060418;28;20033;-59
2021/04/30 10:22:51;;;;;;;3.35;1.38;;;23.00;32.40;;;;;;5058372;28;20040;-61
2021/04/30 10:25:19;;;;;;;1.45;1.27;;;23.00;32.30;;;;;;5057090;28;20095;-52
2021/04/30 10:27:51;;;;;;;1.90;1.20;;;23.00;32.30;;;;;;5070788;28;20101;-62
2021/04/30 10:31:14;;;;;;;1.75;1.33;;;23.00;32.30;;;;;;5071451;28;20343;-58
2021/04/30 10:33:58;;;;;;;2.83;1.60;;;23.00;32.20;;;;;;4988122;28;20034;-54
2021/04/30 10:36:33;;;;;;;2.30;1.33;;;23.10;32.20;;;;;;4988470;28;20045;-58
2021/04/30 10:39:01;;;;;;;1.60;1.25;;;23.00;32.20;;;;;;5028984;28;20388;-57
2021/04/30 10:41:36;;;;;;;1.48;1.27;;;23.00;32.20;;;;;;5056237;28;20033;-58
2021/04/30 10:44:21;;;;;;;1.42;1.13;;;23.10;32.30;;;;;;5056004;28;20078;-56
2021/04/30 10:46:51;;;;;;;2.25;1.40;;;23.10;32.30;;;;;;5060400;28;20056;-58
2021/04/30 10:49:21;;;;;;;1.90;1.13;;;23.00;32.30;;;;;;5057583;28;20033;-56
2021/04/30 10:52:16;;;;;;;1.95;1.35;;;23.00;32.30;;;;;;5062787;28;20052;-53
2021/04/30 10:54:44;;;;;;;1.60;1.27;;;23.00;32.30;;;;;;5056551;28;20060;-58
2021/04/30 10:57:20;;;;;;;2.25;1.25;;;23.10;32.30;;;;;;5054016;28;20127;-55
2021/04/30 10:59:51;;;;;;;1.25;1.00;;;23.10;32.30;;;;;;5062907;28;20047;-51
2021/04/30 11:02:25;;;;;;;2.25;1.30;;;23.00;32.30;;;;;;5059676;28;20036;-57
2021/04/30 11:05:06;;;;;;;1.75;1.30;;;23.00;32.30;;;;;;5060049;28;20065;-52
2021/04/30 11:07:43;;;;;;;2.28;1.25;;;23.00;32.30;;;;;;5062507;28;20032;-60
2021/04/30 11:10:30;;;;;;;1.33;1.17;;;23.00;32.30;;;;;;5062410;28;20020;-58
2021/04/30 11:12:57;;;;;;;1.83;1.33;;;23.00;32.30;;;;;;5061252;28;20036;-57
2021/04/30 11:15:24;;;;;;;1.73;1.30;;;23.00;32.40;;;;;;5056432;28;20025;-59
2021/04/30 11:17:52;;;;;;;1.63;1.17;;;23.00;32.40;;;;;;5062042;28;20025;-55
2021/04/30 11:20:20;;;;;;;2.28;1.35;;;23.00;32.50;;;;;;5059968;28;20032;-56
2021/04/30 11:23:18;;;;;;;2.40;1.35;;;23.00;32.50;;;;;;5060424;28;20068;-58
2021/04/30 11:25:58;;;;;;;2.33;1.35;;;23.00;32.60;;;;;;5060269;28;20444;-56
2021/04/30 11:28:24;;;;;;;2.05;1.33;;;23.00;32.70;;;;;;5061804;28;20039;-57
2021/04/30 11:31:00;;;;;;;1.73;1.30;;;23.00;32.70;;;;;;5063088;28;20123;-56
2021/04/30 11:33:27;;;;;;;1.55;1.20;;;23.00;32.80;;;;;;5063731;28;20697;-52
2021/04/30 11:35:54;;;;;;;2.38;1.40;;;23.00;32.80;;;;;;5059531;28;20071;-58
2021/04/30 11:38:33;;;;;;;2.42;1.60;;;23.00;32.80;;;;;;5061460;28;20036;-57
2021/04/30 11:40:58;;;;;;;2.22;1.50;;;23.00;32.90;;;;;;5061819;28;20063;-59
2021/04/30 11:43:24;;;;;;;2.13;1.63;;;23.00;32.90;;;;;;5062538;28;20033;-54
2021/04/30 11:45:53;;;;;;;2.58;1.60;;;23.00;32.90;;;;;;5059710;28;20040;-56
2021/04/30 11:48:23;;;;;;;2.53;1.60;;;23.00;33.00;;;;;;5061228;28;20033;-57
2021/04/30 11:50:59;;;;;;;1.77;1.60;;;23.00;33.00;;;;;;5060450;28;20144;-56
2021/04/30 11:53:25;;;;;;;3.28;1.55;;;23.00;33.00;;;;;;5060010;28;20035;-54
2021/04/30 11:55:52;;;;;;;2.40;1.73;;;23.10;33.00;;;;;;5059319;28;20409;-57
2021/04/30 11:58:18;;;;;;;3.65;1.67;;;23.00;33.00;;;;;;5060435;28;20025;-55
2021/04/30 12:00:50;;;;;;;2.20;1.67;;;23.00;33.00;;;;;;5058552;28;20440;-57
2021/04/30 12:03:16;;;;;;;3.33;2.00;;;23.00;33.00;;;;;;5064183;28;20364;-59
2021/04/30 12:05:43;;;;;;;2.45;1.95;;;23.00;33.00;;;;;;5077158;28;20040;-54
2021/04/30 12:08:10;;;;;;;2.88;2.25;;;23.00;33.00;;;;;;5086145;28;20040;-57
2021/04/30 12:10:37;;;;;;;3.13;2.38;;;23.00;33.00;;;;;;5086842;28;20124;-56
2021/04/30 12:13:07;;;;;;;3.60;2.25;;;23.00;33.00;;;;;;5082095;28;20375;-56
2021/04/30 12:15:40;;;;;;;3.45;2.60;;;23.00;33.00;;;;;;5083767;28;21605;-55
2021/04/30 12:18:06;;;;;;;3.85;2.70;;;23.00;33.10;;;;;;5082908;28;20062;-55
2021/04/30 12:20:34;;;;;;;3.55;2.75;;;23.00;33.10;;;;;;5084319;28;21510;-54
2021/04/30 12:23:04;;;;;;;3.60;3.08;;;23.00;33.10;;;;;;5063950;28;20407;-52
2021/04/30 12:25:35;;;;;;;4.90;2.90;;;23.00;33.10;;;;;;5063969;28;20044;-51
2021/04/30 12:28:16;;;;;;;3.60;3.13;;;23.00;33.10;;;;;;5070553;28;20386;-51
2021/04/30 12:30:43;;;;;;;4.53;3.38;;;23.00;33.10;;;;;;5071651;28;20685;-59
2021/04/30 12:33:23;;;;;;;4.72;3.53;;;23.00;33.20;;;;;;5070300;28;20032;-56
2021/04/30 12:35:49;;;;;;;4.85;3.67;;;23.00;33.20;;;;;;5061404;28;20342;-56
2021/04/30 12:38:16;;;;;;;4.47;3.90;;;23.00;33.20;;;;;;5042308;28;20167;-57
2021/04/30 12:40:41;;;;;;;4.75;4.10;;;23.00;33.20;;;;;;5054137;28;20115;-58
2021/04/30 12:43:07;;;;;;;5.85;4.90;;;23.00;33.20;;;;;;5066473;28;20020;-57
2021/04/30 12:45:33;;;;;;;6.95;5.18;;;23.00;33.20;;;;;;5068812;28;20435;-56
2021/04/30 12:47:59;;;;;;;7.57;5.25;;;23.00;33.20;;;;;;5051247;28;20040;-60
2021/04/30 12:50:26;;;;;;;5.70;5.07;;;23.00;33.20;;;;;;5074321;28;20016;-59
2021/04/30 12:52:55;;;;;;;6.28;4.97;;;23.10;33.30;;;;;;5070135;28;20032;-61
2021/04/30 12:55:36;;;;;;;6.50;5.57;;;23.10;33.30;;;;;;5076171;28;20096;-61